createdAt,value
2022-09-05T00:01:17.268Z,75.12
2022-09-05T00:06:36.987Z,70.98
2022-09-05T00:11:51.172Z,77.71
2022-09-05T00:17:04.822Z,76.32
2022-09-05T00:22:12.975Z,75.67
2022-09-05T00:27:53.621Z,76.18
2022-09-05T00:33:26.943Z,74.03
2022-09-05T00:38:37.006Z,82.56
2022-09-05T00:43:47.173Z,77.01
2022-09-05T00:48:57.353Z,77.47
2022-09-05T00:54:02.741Z,73.58
2022-09-05T00:59:29.200Z,78.98
2022-09-05T01:04:56.286Z,83.42
2022-09-05T01:10:35.166Z,74.65
2022-09-05T01:16:05.061Z,78.17
2022-09-05T01:21:32.555Z,82.53
2022-09-05T01:26:51.074Z,82.13
2022-09-05T01:32:20.937Z,74.61
2022-09-05T01:37:37.430Z,83.40
2022-09-05T01:42:57.069Z,82.53
2022-09-05T01:48:13.824Z,86.26
2022-09-05T01:54:00.515Z,87.80
2022-09-05T01:59:24.511Z,92.42
2022-09-05T02:05:11.567Z,93.74
2022-09-05T02:10:37.603Z,84.01
2022-09-05T02:16:12.437Z,80.93
2022-09-05T02:21:56.931Z,79.14
2022-09-05T02:27:31.868Z,77.92
2022-09-05T02:33:02.470Z,83.72
2022-09-05T02:39:24.061Z,80.11
2022-09-05T02:45:13.857Z,84.50
2022-09-05T02:49:45.077Z,90.50
2022-09-05T02:57:43.480Z,89.46
2022-09-05T03:00:25.482Z,93.93
2022-09-05T03:05:40.048Z,88.10
2022-09-05T03:11:02.297Z,86.20
2022-09-05T03:16:28.941Z,80.12
2022-09-05T03:22:16.127Z,82.31
2022-09-05T03:27:48.452Z,83.08
2022-09-05T03:32:53.749Z,83.06
2022-09-05T03:39:02.563Z,84.00
2022-09-05T03:44:23.730Z,86.32
2022-09-05T03:51:09.291Z,83.87
2022-09-05T03:57:19.054Z,81.72
2022-09-05T04:00:36.488Z,82.46
2022-09-05T04:08:26.185Z,81.19
2022-09-05T04:11:35.729Z,88.54
2022-09-05T04:17:27.480Z,95.87
2022-09-05T04:22:48.498Z,92.04
2022-09-05T04:28:14.698Z,94.80
2022-09-05T04:33:36.161Z,92.61
2022-09-05T04:38:44.673Z,94.55
2022-09-05T04:43:51.140Z,94.45
2022-09-05T04:49:24.355Z,90.43
2022-09-05T04:54:33.222Z,95.48
2022-09-05T05:06:05.502Z,92.50
2022-09-05T05:06:17.111Z,90.98
2022-09-05T05:17:54.142Z,88.14
2022-09-05T05:18:14.370Z,89.25
2022-09-05T05:22:18.392Z,83.06
2022-09-05T05:27:46.954Z,81.17
2022-09-05T05:32:54.891Z,80.24
2022-09-05T05:38:15.609Z,81.16
2022-09-05T05:43:36.468Z,82.02
2022-09-05T05:48:44.161Z,82.11
2022-09-05T05:53:57.518Z,81.27
2022-09-05T05:59:37.499Z,79.81
2022-09-05T06:05:11.295Z,77.74
2022-09-05T06:14:48.638Z,80.14
2022-09-05T06:16:47.880Z,76.48
2022-09-05T06:22:15.781Z,77.24
2022-09-05T06:28:05.559Z,70.82
2022-09-05T06:33:54.052Z,70.05
2022-09-05T06:39:05.356Z,72.03
2022-09-05T06:44:41.400Z,70.18
2022-09-05T06:49:56.024Z,69.20
2022-09-05T06:55:08.621Z,68.74
2022-09-05T07:00:39.024Z,71.35
2022-09-05T07:06:19.824Z,68.14
2022-09-05T07:11:44.896Z,66.82
2022-09-05T07:16:58.327Z,65.06
2022-09-05T07:22:00.687Z,63.17
2022-09-05T07:27:09.042Z,61.03
2022-09-05T07:32:22.386Z,60.07
2022-09-05T07:37:41.949Z,58.30
2022-09-05T07:43:09.531Z,56.09
2022-09-05T07:48:34.160Z,54.28
2022-09-05T07:57:08.503Z,54.40
2022-09-05T07:59:08.555Z,52.51
2022-09-05T08:04:23.304Z,52.67
2022-09-05T08:10:06.175Z,51.40
2022-09-05T08:14:53.854Z,51.97
2022-09-05T08:20:28.935Z,49.15
2022-09-05T08:25:58.999Z,47.39
2022-09-05T08:31:24.423Z,47.29
2022-09-05T08:36:36.395Z,46.31
2022-09-05T08:42:07.825Z,44.05
2022-09-05T08:47:22.211Z,43.96
2022-09-05T08:52:42.424Z,42.51
2022-09-05T08:58:06.281Z,40.95
2022-09-05T09:03:34.711Z,40.21
2022-09-05T09:09:13.051Z,40.80
2022-09-05T09:14:33.596Z,38.11
2022-09-05T09:20:14.877Z,37.92
2022-09-05T09:25:23.642Z,38.76
2022-09-05T09:30:32.268Z,38.72
2022-09-05T09:35:53.026Z,37.01
2022-09-05T09:41:27.018Z,36.71
2022-09-05T09:46:47.717Z,37.40
2022-09-05T09:52:20.768Z,36.19
2022-09-05T09:57:29.784Z,36.06
2022-09-05T10:06:40.781Z,35.81
2022-09-05T10:10:47.867Z,35.70
2022-09-05T10:14:47.796Z,33.18
2022-09-05T10:20:18.082Z,34.44
2022-09-05T10:25:21.407Z,34.42
2022-09-05T10:31:39.842Z,31.75
2022-09-05T10:36:23.449Z,32.62
2022-09-05T10:41:39.555Z,32.95
2022-09-05T10:46:51.261Z,32.04
2022-09-05T10:52:18.229Z,31.48
2022-09-05T10:57:54.454Z,28.48
2022-09-05T11:03:00.980Z,27.42
2022-09-05T11:08:15.093Z,28.25
2022-09-05T11:13:50.045Z,30.38
2022-09-05T11:19:00.833Z,26.61
2022-09-05T11:24:32.094Z,27.98
2022-09-05T11:29:46.420Z,31.43
2022-09-05T11:40:00.117Z,30.97
2022-09-05T11:41:13.392Z,32.05
2022-09-05T11:46:25.375Z,33.28
2022-09-05T11:51:55.235Z,29.56
2022-09-05T11:57:02.224Z,29.86
2022-09-05T12:02:32.762Z,31.03
2022-09-05T12:08:00.287Z,33.87
2022-09-05T12:13:08.967Z,34.50
2022-09-05T12:18:26.086Z,38.25
2022-09-05T12:24:36.787Z,37.44
2022-09-05T12:29:34.243Z,38.59
2022-09-05T12:36:10.173Z,37.95
2022-09-05T12:41:39.049Z,38.16
2022-09-05T12:46:24.491Z,38.98
2022-09-05T12:51:45.826Z,40.77
2022-09-05T13:02:55.479Z,39.18
2022-09-05T13:03:14.502Z,44.14
2022-09-05T13:08:21.029Z,39.40
2022-09-05T13:14:58.749Z,39.32
2022-09-05T13:19:04.467Z,37.15
2022-09-05T13:24:14.517Z,31.83
2022-09-05T13:29:21.785Z,30.18
2022-09-05T13:38:02.656Z,27.64
2022-09-05T13:40:12.399Z,28.96
2022-09-05T13:45:18.737Z,30.56
2022-09-05T13:50:26.792Z,25.30
2022-09-05T13:56:00.497Z,26.13
2022-09-05T14:01:12.149Z,28.70
2022-09-05T14:06:52.055Z,26.63
2022-09-05T14:12:26.959Z,30.36
2022-09-05T14:17:53.688Z,30.33
2022-09-05T14:23:08.985Z,30.35
2022-09-05T14:28:39.800Z,27.03
2022-09-05T14:37:46.539Z,28.39
2022-09-05T14:39:41.000Z,35.03
2022-09-05T14:45:08.457Z,34.31
2022-09-05T14:50:28.144Z,34.01
2022-09-05T14:55:31.121Z,34.15
2022-09-05T15:02:51.313Z,31.65
2022-09-05T15:06:28.107Z,37.10
2022-09-05T15:12:23.425Z,39.08
2022-09-05T15:17:05.715Z,34.29
2022-09-05T15:22:27.455Z,37.75
2022-09-05T15:27:30.983Z,37.78
2022-09-05T15:32:38.060Z,40.46
2022-09-05T15:37:42.999Z,40.71
2022-09-05T15:42:57.878Z,43.08
2022-09-05T15:48:22.175Z,42.50
2022-09-05T15:53:29.377Z,43.76
2022-09-05T15:58:52.643Z,44.43
2022-09-05T16:07:20.944Z,44.47
2022-09-05T16:10:41.288Z,45.07
2022-09-05T16:15:37.983Z,46.75
2022-09-05T16:23:26.019Z,47.91
2022-09-05T16:26:01.085Z,43.73
2022-09-05T16:31:15.820Z,43.04
2022-09-05T16:36:32.727Z,44.11
2022-09-05T16:41:58.866Z,46.10
2022-09-05T16:47:29.829Z,44.93
2022-09-05T16:52:54.036Z,49.15
2022-09-05T16:58:23.293Z,46.67
2022-09-05T17:03:34.568Z,50.25
2022-09-05T17:08:37.416Z,47.36
2022-09-05T17:13:43.504Z,47.81
2022-09-05T17:18:51.090Z,47.85
2022-09-05T17:29:16.083Z,49.71
2022-09-05T17:35:18.131Z,50.99
2022-09-05T17:41:02.104Z,50.87
2022-09-05T17:46:16.301Z,52.17
2022-09-05T17:51:27.938Z,55.29
2022-09-05T17:56:40.685Z,52.68
2022-09-05T18:02:03.322Z,54.25
2022-09-05T18:07:25.849Z,51.97
2022-09-05T18:13:12.985Z,52.34
2022-09-05T18:18:31.345Z,53.65
2022-09-05T18:23:51.695Z,55.21
2022-09-05T18:29:16.574Z,55.33
2022-09-05T18:34:19.105Z,57.94
2022-09-05T18:39:24.812Z,54.84
2022-09-05T18:44:31.012Z,58.79
2022-09-05T18:50:24.739Z,56.38
2022-09-05T18:56:11.162Z,57.25
2022-09-05T19:00:46.768Z,58.48
2022-09-05T19:06:36.887Z,59.67
2022-09-05T19:12:16.213Z,59.30
2022-09-05T19:17:50.600Z,60.31
2022-09-05T19:23:10.210Z,60.88
2022-09-05T19:36:44.369Z,60.79
2022-09-05T19:36:55.087Z,59.45
2022-09-05T19:44:41.318Z,59.00
2022-09-05T19:47:38.548Z,59.86
2022-09-05T19:50:24.315Z,59.62
2022-09-05T19:55:28.208Z,61.15
2022-09-05T20:00:31.639Z,60.19
2022-09-05T20:05:40.343Z,60.26
2022-09-05T20:10:43.105Z,60.55
2022-09-05T20:15:45.614Z,61.41
2022-09-05T20:21:25.953Z,61.17
2022-09-05T20:26:33.666Z,60.99
2022-09-05T20:31:37.595Z,63.26
2022-09-05T20:43:09.198Z,63.63
2022-09-05T20:43:32.029Z,61.06
2022-09-05T20:54:04.395Z,60.52
2022-09-05T20:54:31.620Z,62.10
2022-09-05T20:58:58.512Z,60.95
2022-09-05T21:04:05.763Z,61.59
2022-09-05T21:09:25.752Z,60.95
2022-09-05T21:14:29.791Z,61.43
2022-09-05T21:19:34.080Z,61.37
2022-09-05T21:24:37.053Z,61.58
2022-09-05T21:29:39.780Z,62.06
2022-09-05T21:34:49.025Z,61.30
2022-09-05T21:40:00.223Z,61.64
2022-09-05T21:47:37.715Z,62.19
2022-09-05T21:50:31.262Z,61.93
2022-09-05T21:59:21.902Z,62.85
2022-09-05T22:00:57.923Z,62.28
2022-09-05T22:06:03.929Z,61.59
2022-09-05T22:11:11.486Z,62.33
2022-09-05T22:16:15.388Z,62.39
2022-09-05T22:21:32.607Z,63.67
2022-09-05T22:27:06.296Z,62.68
2022-09-05T22:32:07.259Z,61.63
2022-09-05T22:37:09.735Z,62.62
2022-09-05T22:42:12.209Z,65.83
2022-09-05T22:47:14.847Z,64.95
2022-09-05T22:52:17.591Z,64.96
2022-09-05T22:57:20.090Z,65.07
2022-09-05T23:02:22.538Z,64.51
2022-09-05T23:07:25.012Z,63.04
2022-09-05T23:12:27.450Z,63.38
2022-09-05T23:17:30.171Z,64.43
2022-09-05T23:22:35.188Z,67.56
2022-09-05T23:27:38.205Z,68.10
2022-09-05T23:32:48.377Z,68.21
2022-09-05T23:37:51.270Z,66.91
2022-09-05T23:42:55.735Z,67.41
2022-09-05T23:47:58.894Z,66.66
2022-09-05T23:53:04.265Z,66.89
2022-09-05T23:58:06.837Z,66.57
